Terminal Aerodrome Forecast
Issued by NWS Blacksburg, VA

Current Version | Previous Version | Graphics & Text | Print | Product List | Glossary On
Versions: 1 2 3 4 5 6 7 8 9 10 11 12 13 14 15 16 17 18 19 20 21 22 23 24 25
000
FTUS41 KRNK 212122 AAB
TAFBLF
TAF AMD
KBLF 212122Z 2121/2218 27010KT P6SM -SHRA SCT050 BKN150
     FM220200 29004KT 5SM -SHRA OVC025
     FM220800 35004KT 4SM -SHRA OVC008
     FM221200 VRB03KT 6SM -SHRA BR OVC003=

USA.gov is the U.S. government's official web portal to all federal, state and local government web resources and services.